Aérodrome :
LOGIN :

S'inscrire | Disclaimer

   EN    FR    IT 

 










Légende :    VFR   VFR Marginal   IFR   IFR Intensif   IFR Très Intensif
Visi : 
Plafond : 
>= 8 km
>= 3000ft
5 à 8 km
1000 à 3000 ft
1500m à 5 km
500 à 1000 ft
800 à 1500m
200 à 500 ft
< 800m
< 200 ft
Symboles :   Orages  Brouillard  Fortes neiges  Fortes précipitations  Vent > 20 kt
SIGMETs :   Divers  Orages  Givrage  Turbulence  Onde Orograph.  Cendres Volcan.







- Altitude de l'aérodrome : 1247 ft
- Code IATA : PRG


LKPR - Praha Ruzyne

DERNIER METAR :
  • 230400Z 31005KT CAVOK 18/13 Q1015 NOSIG

METARs EXPIRÉS :
  • 230330Z 32006KT CAVOK 18/13 Q1015 NOSIG
  • 230300Z 32006KT CAVOK 18/13 Q1015 NOSIG
  • 230230Z 32006KT CAVOK 18/12 Q1015 NOSIG
  • 230200Z 32006KT CAVOK 19/12 Q1015 NOSIG
  • 230130Z 33005KT CAVOK 19/12 Q1015 NOSIG
  • 230100Z 32005KT CAVOK 19/12 Q1015 NOSIG

TAF TAF LKPR
Valide du 23 à 00h jusqu'au 24 à 06h UTC


222300Z 2300/2406 34008KT CAVOK
TEMPO 2310/2319 8000 SHRA SCT040TCU
PROB30
TEMPO 2312/2317 24012G24KT 5000 TSRA SCT030CB
Pas de NOTAMs connus pour ce terrain.



MET'MAP, la Météo Aéronautique d'un coup d'oeil ! - Copyright ORBIFLY Décembre 2007 - Disclaimer

ORBIFLY MET'MAP TEAM :

Programmation & Développement : Alexandra Zaïnal
Conception & Développement : Baudouin d'Aumeries
Co-Programmation & Développement : Marc-Olivier Méhu
Soutien technique & logistique : Manuel Goepfert

Contact : metmap@orbifly.com




SOURCES & CREDITS :

   NOAA